Time;durP1;ratioP1;P1;durP2;ratioP2;P2;SDS_P1;SDS_P2;PMS_P1;PMS_P2;Temp;Humidity;BMP_temperature;BMP_pressure;BME280_temperature;BME280_humidity;BME280_pressure;Samples;Min_cycle;Max_cycle;Signal;HPM_P1;HPM_P2
2023/03/16 00:00:12;;;;;;;0.30;0.30;;;;;;;;;;1722976;28;20518;-64
2023/03/16 00:01:06;;;;;;;0.20;0.20;;;;;;;;;;1722530;28;20263;-64
2023/03/16 00:01:58;;;;;;;0.20;0.20;;;;;;;;;;1724221;28;20716;-64
2023/03/16 00:02:49;;;;;;;0.10;0.10;;;;;;;;;;1723230;28;20209;-66
2023/03/16 00:03:41;;;;;;;0.15;0.15;;;;;;;;;;1724282;28;20231;-66
2023/03/16 00:04:36;;;;;;;0.10;0.10;;;;;;;;;;1723360;28;20216;-65
2023/03/16 00:05:28;;;;;;;0.10;0.10;;;;;;;;;;1721813;28;20208;-65
2023/03/16 00:06:19;;;;;;;0.10;0.10;;;;;;;;;;1722613;28;20273;-65
2023/03/16 00:07:11;;;;;;;0.50;0.50;;;;;;;;;;1724513;28;20212;-65
2023/03/16 00:08:03;;;;;;;0.20;0.20;;;;;;;;;;1724729;28;20212;-65
2023/03/16 00:08:57;;;;;;;0.10;0.10;;;;;;;;;;1724269;28;20211;-65
2023/03/16 00:09:48;;;;;;;0.22;0.22;;;;;;;;;;1724954;28;20341;-65
2023/03/16 00:10:45;;;;;;;0.22;0.22;;;;;;;;;;1721454;28;20288;-64
2023/03/16 00:11:36;;;;;;;0.10;0.10;;;;;;;;;;1725735;28;20261;-66
2023/03/16 00:12:28;;;;;;;0.40;0.40;;;;;;;;;;1724545;28;20210;-65
2023/03/16 00:13:22;;;;;;;0.25;0.25;;;;;;;;;;1725081;28;20211;-65
2023/03/16 00:14:14;;;;;;;0.20;0.20;;;;;;;;;;1724474;28;20627;-65
2023/03/16 00:15:06;;;;;;;0.10;0.10;;;;;;;;;;1725113;28;20211;-65
2023/03/16 00:16:00;;;;;;;0.20;0.20;;;;;;;;;;1721747;28;20296;-64
2023/03/16 00:16:52;;;;;;;0.15;0.15;;;;;;;;;;1724842;28;20517;-65
2023/03/16 00:17:47;;;;;;;0.10;0.10;;;;;;;;;;1724145;28;20207;-65
2023/03/16 00:18:38;;;;;;;0.20;0.20;;;;;;;;;;1725083;28;20212;-65
2023/03/16 00:19:33;;;;;;;0.10;0.10;;;;;;;;;;1724584;28;20290;-65
2023/03/16 00:20:26;;;;;;;0.22;0.22;;;;;;;;;;1722254;28;20224;-65
2023/03/16 00:21:18;;;;;;;0.13;0.13;;;;;;;;;;1723945;28;20218;-65
2023/03/16 00:22:13;;;;;;;0.10;0.10;;;;;;;;;;1725138;28;20270;-65
2023/03/16 00:23:05;;;;;;;0.10;0.10;;;;;;;;;;1724544;28;20252;-66
2023/03/16 00:23:56;;;;;;;0.05;0.05;;;;;;;;;;1724357;28;20235;-65
2023/03/16 00:24:48;;;;;;;0.30;0.30;;;;;;;;;;1724997;28;20625;-66
2023/03/16 00:25:40;;;;;;;0.10;0.10;;;;;;;;;;1720826;28;20301;-65
2023/03/16 00:26:32;;;;;;;0.10;0.10;;;;;;;;;;1725298;28;20218;-65
2023/03/16 00:27:24;;;;;;;0.00;0.00;;;;;;;;;;1723875;28;20570;-65
2023/03/16 00:28:16;;;;;;;0.10;0.10;;;;;;;;;;1724975;28;20230;-64
2023/03/16 00:29:07;;;;;;;0.17;0.17;;;;;;;;;;1724113;28;20213;-65
2023/03/16 00:30:02;;;;;;;0.20;0.20;;;;;;;;;;1725135;28;20209;-65
2023/03/16 00:30:57;;;;;;;0.10;0.10;;;;;;;;;;1722101;28;20235;-65
2023/03/16 00:31:51;;;;;;;0.20;0.20;;;;;;;;;;1722849;28;20211;-64
2023/03/16 00:32:43;;;;;;;0.05;0.05;;;;;;;;;;1724013;28;20556;-64
2023/03/16 00:33:35;;;;;;;0.10;0.10;;;;;;;;;;1725295;28;20353;-65
2023/03/16 00:34:28;;;;;;;0.30;0.30;;;;;;;;;;1724423;28;20218;-65
2023/03/16 00:35:20;;;;;;;0.03;0.03;;;;;;;;;;1723098;28;20211;-64
2023/03/16 00:36:12;;;;;;;0.10;0.10;;;;;;;;;;1724108;28;20255;-65
2023/03/16 00:37:04;;;;;;;0.20;0.20;;;;;;;;;;1725136;28;20227;-67
2023/03/16 00:37:56;;;;;;;0.00;0.00;;;;;;;;;;1723926;28;20238;-64
2023/03/16 00:38:48;;;;;;;0.10;0.10;;;;;;;;;;1725232;28;20215;-64
2023/03/16 00:39:40;;;;;;;0.22;0.22;;;;;;;;;;1723886;28;20215;-63
2023/03/16 00:40:32;;;;;;;0.10;0.10;;;;;;;;;;1722788;28;21840;-64
2023/03/16 00:41:24;;;;;;;0.05;0.05;;;;;;;;;;1724715;28;20703;-64
2023/03/16 00:42:17;;;;;;;0.10;0.10;;;;;;;;;;1723587;28;20207;-64
2023/03/16 00:43:08;;;;;;;0.20;0.20;;;;;;;;;;1724735;28;20251;-65
2023/03/16 00:44:00;;;;;;;0.10;0.10;;;;;;;;;;1723956;28;20221;-65
2023/03/16 00:44:56;;;;;;;0.10;0.10;;;;;;;;;;1724761;28;20272;-65
2023/03/16 00:45:48;;;;;;;0.20;0.20;;;;;;;;;;1721323;28;20227;-66
2023/03/16 00:46:39;;;;;;;0.30;0.30;;;;;;;;;;1725428;28;20206;-66
2023/03/16 00:47:32;;;;;;;0.13;0.13;;;;;;;;;;1724031;28;20239;-67
2023/03/16 00:48:25;;;;;;;0.10;0.10;;;;;;;;;;1724123;28;20245;-64
2023/03/16 00:49:17;;;;;;;0.30;0.30;;;;;;;;;;1724267;28;20231;-64
2023/03/16 00:50:08;;;;;;;0.10;0.10;;;;;;;;;;1724574;28;20250;-64
2023/03/16 00:51:01;;;;;;;0.10;0.10;;;;;;;;;;1722691;28;20782;-63
2023/03/16 00:51:52;;;;;;;0.00;0.00;;;;;;;;;;1725040;28;20204;-64
2023/03/16 00:52:45;;;;;;;0.35;0.35;;;;;;;;;;1723928;28;20208;-63
2023/03/16 00:53:36;;;;;;;0.17;0.17;;;;;;;;;;1725981;28;20674;-65
2023/03/16 00:54:27;;;;;;;0.20;0.20;;;;;;;;;;1724717;28;20245;-65
2023/03/16 00:55:19;;;;;;;0.10;0.10;;;;;;;;;;1723801;28;20694;-65
2023/03/16 00:56:11;;;;;;;0.20;0.20;;;;;;;;;;1724903;28;20295;-64
2023/03/16 00:57:02;;;;;;;0.10;0.10;;;;;;;;;;1726057;28;20579;-65
2023/03/16 00:57:54;;;;;;;0.30;0.30;;;;;;;;;;1724674;28;20199;-64
2023/03/16 00:58:46;;;;;;;0.20;0.20;;;;;;;;;;1725247;28;20208;-65
2023/03/16 00:59:37;;;;;;;0.10;0.10;;;;;;;;;;1725454;28;20694;-64
2023/03/16 01:00:29;;;;;;;0.20;0.20;;;;;;;;;;1723519;28;20691;-64
2023/03/16 01:01:20;;;;;;;0.00;0.00;;;;;;;;;;1724760;28;20209;-64
2023/03/16 01:02:12;;;;;;;0.22;0.22;;;;;;;;;;1725550;28;20215;-64
2023/03/16 01:03:03;;;;;;;0.38;0.38;;;;;;;;;;1725055;28;20249;-65
2023/03/16 01:03:58;;;;;;;0.10;0.10;;;;;;;;;;1724908;28;20204;-64
2023/03/16 01:04:50;;;;;;;0.10;0.10;;;;;;;;;;1724910;28;20426;-65
2023/03/16 01:05:42;;;;;;;0.10;0.10;;;;;;;;;;1721747;28;20252;-63
2023/03/16 01:06:34;;;;;;;0.32;0.32;;;;;;;;;;1725912;28;20208;-65
2023/03/16 01:07:26;;;;;;;0.10;0.10;;;;;;;;;;1724309;28;20208;-63
2023/03/16 01:08:17;;;;;;;0.20;0.20;;;;;;;;;;1725643;28;20322;-66
2023/03/16 01:09:09;;;;;;;0.15;0.15;;;;;;;;;;1724421;28;20223;-65
2023/03/16 01:10:00;;;;;;;0.10;0.10;;;;;;;;;;1725891;28;20296;-66
2023/03/16 01:10:52;;;;;;;0.17;0.17;;;;;;;;;;1721408;28;20289;-64
2023/03/16 01:11:43;;;;;;;0.10;0.10;;;;;;;;;;1725608;28;20639;-63
2023/03/16 01:12:36;;;;;;;0.10;0.10;;;;;;;;;;1725058;28;20206;-64
2023/03/16 01:13:27;;;;;;;0.00;0.00;;;;;;;;;;1725076;28;20285;-65
2023/03/16 01:14:19;;;;;;;0.10;0.10;;;;;;;;;;1724742;28;20207;-64
2023/03/16 01:15:11;;;;;;;0.00;0.00;;;;;;;;;;1724726;28;20772;-64
2023/03/16 01:16:03;;;;;;;0.10;0.10;;;;;;;;;;1722913;28;20244;-65
2023/03/16 01:16:54;;;;;;;0.10;0.10;;;;;;;;;;1726883;28;20641;-65
2023/03/16 01:17:47;;;;;;;0.03;0.03;;;;;;;;;;1727544;28;20684;-65
2023/03/16 01:18:38;;;;;;;0.15;0.15;;;;;;;;;;1728535;28;20238;-64
2023/03/16 01:19:32;;;;;;;0.20;0.20;;;;;;;;;;1725989;28;20674;-65
2023/03/16 01:20:25;;;;;;;0.20;0.20;;;;;;;;;;1723020;28;20759;-66
2023/03/16 01:21:17;;;;;;;0.10;0.10;;;;;;;;;;1724320;28;20229;-65
2023/03/16 01:22:08;;;;;;;0.10;0.10;;;;;;;;;;1725687;28;20694;-64
2023/03/16 01:23:01;;;;;;;0.13;0.13;;;;;;;;;;1724564;28;20697;-66
2023/03/16 01:23:52;;;;;;;0.25;0.25;;;;;;;;;;1725389;28;20621;-65
2023/03/16 01:24:45;;;;;;;0.20;0.20;;;;;;;;;;1725038;28;20197;-65
2023/03/16 01:25:36;;;;;;;0.10;0.10;;;;;;;;;;1722805;28;20354;-65
2023/03/16 01:26:28;;;;;;;0.00;0.00;;;;;;;;;;1725308;28;20212;-65
2023/03/16 01:27:19;;;;;;;0.10;0.10;;;;;;;;;;1724674;28;20239;-65
2023/03/16 01:28:12;;;;;;;0.20;0.20;;;;;;;;;;1725205;28;20294;-65
2023/03/16 01:29:03;;;;;;;0.57;0.57;;;;;;;;;;1724668;28;20214;-65
2023/03/16 01:29:55;;;;;;;0.47;0.47;;;;;;;;;;1725255;28;20204;-65
2023/03/16 01:30:46;;;;;;;0.10;0.10;;;;;;;;;;1721550;28;20295;-65
2023/03/16 01:31:38;;;;;;;0.00;0.00;;;;;;;;;;1725935;28;20625;-64
2023/03/16 01:32:29;;;;;;;0.10;0.10;;;;;;;;;;1724391;28;20750;-65
2023/03/16 01:33:21;;;;;;;0.20;0.20;;;;;;;;;;1725557;28;20211;-64
2023/03/16 01:34:15;;;;;;;0.20;0.20;;;;;;;;;;1724387;28;20278;-65
2023/03/16 01:35:08;;;;;;;0.30;0.30;;;;;;;;;;1725554;28;20215;-65
2023/03/16 01:36:02;;;;;;;0.05;0.05;;;;;;;;;;1721439;28;20255;-65
2023/03/16 01:36:53;;;;;;;0.00;0.00;;;;;;;;;;1725516;28;20295;-65
2023/03/16 01:37:45;;;;;;;0.15;0.15;;;;;;;;;;1724443;28;20962;-64
2023/03/16 01:38:37;;;;;;;0.03;0.03;;;;;;;;;;1725751;28;20649;-65
2023/03/16 01:39:29;;;;;;;0.10;0.10;;;;;;;;;;1724337;28;20215;-66
2023/03/16 01:40:20;;;;;;;0.20;0.20;;;;;;;;;;1723180;28;20262;-66
2023/03/16 01:41:13;;;;;;;0.10;0.10;;;;;;;;;;1724467;28;20207;-67
2023/03/16 01:42:04;;;;;;;0.20;0.20;;;;;;;;;;1725420;28;20214;-64
2023/03/16 01:43:01;;;;;;;0.30;0.30;;;;;;;;;;1724103;28;20211;-67
2023/03/16 01:43:57;;;;;;;0.10;0.10;;;;;;;;;;1725261;28;20204;-69
2023/03/16 01:44:54;;;;;;;0.10;0.10;;;;;;;;;;1725189;28;20205;-68
2023/03/16 01:46:13;;;;;;;0.20;0.20;;;;;;;;;;1721384;28;20618;-64
2023/03/16 01:47:05;;;;;;;0.22;0.22;;;;;;;;;;1725265;28;20211;-66
2023/03/16 01:47:57;;;;;;;0.40;0.40;;;;;;;;;;1724168;28;20732;-66
2023/03/16 01:48:57;;;;;;;0.20;0.20;;;;;;;;;;1724930;28;20234;-66
2023/03/16 01:49:48;;;;;;;0.10;0.10;;;;;;;;;;1745603;23;21027;-60
2023/03/16 01:50:42;;;;;;;0.10;0.10;;;;;;;;;;1722315;28;20231;-59
2023/03/16 01:51:36;;;;;;;0.00;0.00;;;;;;;;;;1725253;28;20277;-60
2023/03/16 01:52:32;;;;;;;0.30;0.30;;;;;;;;;;1724705;28;20223;-59
2023/03/16 01:53:25;;;;;;;0.10;0.10;;;;;;;;;;1725055;28;20231;-60
2023/03/16 01:54:21;;;;;;;0.28;0.28;;;;;;;;;;1724697;28;20202;-60
2023/03/16 01:55:13;;;;;;;0.13;0.13;;;;;;;;;;1724413;28;20219;-58
2023/03/16 01:56:07;;;;;;;0.20;0.20;;;;;;;;;;1723901;28;20250;-60
2023/03/16 01:57:03;;;;;;;0.13;0.13;;;;;;;;;;1725293;28;20205;-60
2023/03/16 01:57:55;;;;;;;0.10;0.10;;;;;;;;;;1724430;28;20551;-60
2023/03/16 01:58:47;;;;;;;0.10;0.10;;;;;;;;;;1725383;28;20718;-60
2023/03/16 01:59:41;;;;;;;0.20;0.20;;;;;;;;;;1728082;28;20258;-60
2023/03/16 02:00:32;;;;;;;0.10;0.10;;;;;;;;;;1723591;28;20278;-59
2023/03/16 02:01:24;;;;;;;0.10;0.10;;;;;;;;;;1731796;28;20219;-61
2023/03/16 02:02:19;;;;;;;0.20;0.20;;;;;;;;;;1731693;28;20209;-59
2023/03/16 02:03:12;;;;;;;0.40;0.40;;;;;;;;;;1731927;28;20212;-60
2023/03/16 02:04:08;;;;;;;0.20;0.20;;;;;;;;;;1731537;28;20238;-60
2023/03/16 02:05:01;;;;;;;0.20;0.20;;;;;;;;;;1729209;28;20211;-59
2023/03/16 02:05:57;;;;;;;0.20;0.20;;;;;;;;;;1729209;28;20256;-60
2023/03/16 02:06:48;;;;;;;0.10;0.10;;;;;;;;;;1731946;28;20333;-60
2023/03/16 02:07:42;;;;;;;0.20;0.20;;;;;;;;;;1731631;28;20293;-60
2023/03/16 02:08:34;;;;;;;0.10;0.10;;;;;;;;;;1731195;28;20276;-60
2023/03/16 02:09:27;;;;;;;0.10;0.10;;;;;;;;;;1731558;28;20303;-59
2023/03/16 02:10:19;;;;;;;0.10;0.10;;;;;;;;;;1728647;28;20268;-57
2023/03/16 02:11:11;;;;;;;0.20;0.20;;;;;;;;;;1724629;28;20222;-60
2023/03/16 02:12:03;;;;;;;0.15;0.15;;;;;;;;;;1725230;28;20277;-60
2023/03/16 02:12:56;;;;;;;0.10;0.10;;;;;;;;;;1724437;28;20686;-59
2023/03/16 02:13:48;;;;;;;0.10;0.10;;;;;;;;;;1725244;28;20656;-60
2023/03/16 02:14:40;;;;;;;0.40;0.40;;;;;;;;;;1724793;28;20203;-60
2023/03/16 02:15:31;;;;;;;0.10;0.10;;;;;;;;;;1717128;28;20388;-60
2023/03/16 02:16:23;;;;;;;0.00;0.00;;;;;;;;;;1724631;28;20204;-59
2023/03/16 02:17:15;;;;;;;0.20;0.20;;;;;;;;;;1724800;28;20210;-60
2023/03/16 02:18:07;;;;;;;0.22;0.22;;;;;;;;;;1724589;28;20223;-59
2023/03/16 02:18:59;;;;;;;0.20;0.20;;;;;;;;;;1724520;28;20212;-59
2023/03/16 02:19:54;;;;;;;0.20;0.20;;;;;;;;;;1724961;28;20734;-60
2023/03/16 02:20:48;;;;;;;0.05;0.05;;;;;;;;;;1732399;28;20697;-58
2023/03/16 02:21:44;;;;;;;0.38;0.38;;;;;;;;;;1738551;28;20308;-59
2023/03/16 02:22:36;;;;;;;0.08;0.08;;;;;;;;;;1735187;28;20649;-59
2023/03/16 02:23:28;;;;;;;0.10;0.10;;;;;;;;;;1738437;28;20280;-60
2023/03/16 02:24:19;;;;;;;0.20;0.20;;;;;;;;;;1738384;28;20215;-60
2023/03/16 02:25:11;;;;;;;0.20;0.20;;;;;;;;;;1737587;28;20350;-57
2023/03/16 02:26:05;;;;;;;0.10;0.10;;;;;;;;;;1737437;28;20295;-59
2023/03/16 02:26:59;;;;;;;0.10;0.10;;;;;;;;;;1738225;28;20200;-59
2023/03/16 02:27:54;;;;;;;0.10;0.10;;;;;;;;;;1738126;28;20882;-59
2023/03/16 02:28:50;;;;;;;0.00;0.00;;;;;;;;;;1738780;28;20187;-59
2023/03/16 02:29:55;;;;;;;0.08;0.08;;;;;;;;;;1737811;28;20709;-59
2023/03/16 02:30:47;;;;;;;0.15;0.15;;;;;;;;;;1731726;28;20228;-59
2023/03/16 02:31:39;;;;;;;0.20;0.20;;;;;;;;;;1738988;28;20279;-59
2023/03/16 02:32:32;;;;;;;0.10;0.10;;;;;;;;;;1738320;28;20342;-59
2023/03/16 02:33:23;;;;;;;0.10;0.10;;;;;;;;;;1738368;28;20215;-59
2023/03/16 02:34:17;;;;;;;0.22;0.22;;;;;;;;;;1738307;28;20305;-58
2023/03/16 02:35:09;;;;;;;0.10;0.10;;;;;;;;;;1738651;28;20233;-58
2023/03/16 02:36:01;;;;;;;0.00;0.00;;;;;;;;;;1736422;28;20260;-58
2023/03/16 02:36:53;;;;;;;0.10;0.10;;;;;;;;;;1738758;28;20576;-59
2023/03/16 02:37:45;;;;;;;0.00;0.00;;;;;;;;;;1737829;28;20222;-59
2023/03/16 02:38:36;;;;;;;0.10;0.10;;;;;;;;;;1739117;28;20206;-59
2023/03/16 02:39:28;;;;;;;0.20;0.20;;;;;;;;;;1738033;28;20211;-58
2023/03/16 02:40:21;;;;;;;0.22;0.22;;;;;;;;;;1736817;28;20578;-56
2023/03/16 02:41:14;;;;;;;0.10;0.10;;;;;;;;;;1738095;28;20207;-58
2023/03/16 02:42:06;;;;;;;0.25;0.25;;;;;;;;;;1738516;28;20564;-59
2023/03/16 02:43:01;;;;;;;0.00;0.00;;;;;;;;;;1738062;28;20756;-60
2023/03/16 02:43:55;;;;;;;0.00;0.00;;;;;;;;;;1738366;28;20187;-59
2023/03/16 02:44:49;;;;;;;0.20;0.20;;;;;;;;;;1738279;28;20268;-58
2023/03/16 02:45:43;;;;;;;0.20;0.20;;;;;;;;;;1736582;28;20291;-59
2023/03/16 02:46:35;;;;;;;0.00;0.00;;;;;;;;;;1735294;28;20589;-60
2023/03/16 02:47:31;;;;;;;0.10;0.10;;;;;;;;;;1737945;28;20218;-55
2023/03/16 02:48:25;;;;;;;0.20;0.20;;;;;;;;;;1738446;28;20238;-60
2023/03/16 02:49:19;;;;;;;0.10;0.10;;;;;;;;;;1738000;28;20767;-60
2023/03/16 02:50:12;;;;;;;0.20;0.20;;;;;;;;;;1737514;28;20218;-58
2023/03/16 02:51:04;;;;;;;0.00;0.00;;;;;;;;;;1736885;28;20649;-60
2023/03/16 02:51:56;;;;;;;0.10;0.10;;;;;;;;;;1738375;28;20202;-60
2023/03/16 02:52:47;;;;;;;0.15;0.15;;;;;;;;;;1738157;28;20200;-59
2023/03/16 02:53:39;;;;;;;0.20;0.20;;;;;;;;;;1738943;28;20553;-61
2023/03/16 02:54:31;;;;;;;0.20;0.20;;;;;;;;;;1737916;28;20234;-61
2023/03/16 02:55:22;;;;;;;0.00;0.00;;;;;;;;;;1736819;28;20742;-60
2023/03/16 02:56:14;;;;;;;0.20;0.20;;;;;;;;;;1737796;28;20777;-60
2023/03/16 02:57:05;;;;;;;0.10;0.10;;;;;;;;;;1738532;28;20215;-59
2023/03/16 02:57:57;;;;;;;0.10;0.10;;;;;;;;;;1737842;28;20276;-60
2023/03/16 02:58:48;;;;;;;0.20;0.20;;;;;;;;;;1738336;28;20263;-60
2023/03/16 02:59:40;;;;;;;0.30;0.30;;;;;;;;;;1738327;28;20608;-61
2023/03/16 03:00:31;;;;;;;0.00;0.00;;;;;;;;;;1736286;28;20250;-59
2023/03/16 03:01:25;;;;;;;0.10;0.10;;;;;;;;;;1738246;28;20206;-60
2023/03/16 03:02:16;;;;;;;0.20;0.20;;;;;;;;;;1738172;28;20248;-59
2023/03/16 03:03:08;;;;;;;0.10;0.10;;;;;;;;;;1738355;28;20341;-60
2023/03/16 03:03:59;;;;;;;0.10;0.10;;;;;;;;;;1738133;28;20253;-60
2023/03/16 03:04:53;;;;;;;0.20;0.20;;;;;;;;;;1738261;28;20206;-61
2023/03/16 03:05:44;;;;;;;0.10;0.10;;;;;;;;;;1736155;28;20262;-60
2023/03/16 03:06:36;;;;;;;0.10;0.10;;;;;;;;;;1738813;28;20230;-60
2023/03/16 03:07:30;;;;;;;0.08;0.08;;;;;;;;;;1737896;28;20213;-58
2023/03/16 03:08:22;;;;;;;0.10;0.10;;;;;;;;;;1738510;28;20207;-60
2023/03/16 03:09:13;;;;;;;0.00;0.00;;;;;;;;;;1737760;28;20211;-60
2023/03/16 03:10:06;;;;;;;0.20;0.20;;;;;;;;;;1738389;28;20536;-59
2023/03/16 03:10:57;;;;;;;0.00;0.00;;;;;;;;;;1736223;28;20305;-61
2023/03/16 03:11:49;;;;;;;0.00;0.00;;;;;;;;;;1738616;28;20268;-60
2023/03/16 03:12:41;;;;;;;0.30;0.30;;;;;;;;;;1738369;28;20203;-61
2023/03/16 03:13:33;;;;;;;0.00;0.00;;;;;;;;;;1738498;28;20272;-60
2023/03/16 03:14:24;;;;;;;0.30;0.30;;;;;;;;;;1737803;28;20333;-60
2023/03/16 03:15:17;;;;;;;0.10;0.10;;;;;;;;;;1736825;28;20678;-59
2023/03/16 03:16:08;;;;;;;0.00;0.00;;;;;;;;;;1737763;28;20238;-60
2023/03/16 03:17:03;;;;;;;0.10;0.10;;;;;;;;;;1738293;28;20206;-60
2023/03/16 03:17:54;;;;;;;0.20;0.20;;;;;;;;;;1737604;28;20587;-60
2023/03/16 03:18:46;;;;;;;0.10;0.10;;;;;;;;;;1738532;28;20292;-60
2023/03/16 03:19:37;;;;;;;0.20;0.20;;;;;;;;;;1737939;28;20264;-60
2023/03/16 03:20:29;;;;;;;0.32;0.32;;;;;;;;;;1736482;28;20201;-60
2023/03/16 03:21:20;;;;;;;0.05;0.05;;;;;;;;;;1737686;28;20218;-61
2023/03/16 03:22:17;;;;;;;0.10;0.10;;;;;;;;;;1738583;28;20265;-59
2023/03/16 03:23:08;;;;;;;0.10;0.10;;;;;;;;;;1737488;28;20791;-60
2023/03/16 03:24:00;;;;;;;0.10;0.10;;;;;;;;;;1738115;28;20199;-60
2023/03/16 03:24:51;;;;;;;0.10;0.10;;;;;;;;;;1738377;28;20586;-61
2023/03/16 03:25:44;;;;;;;0.10;0.10;;;;;;;;;;1735879;28;20231;-59
2023/03/16 03:26:36;;;;;;;0.43;0.43;;;;;;;;;;1735111;28;20212;-61
2023/03/16 03:27:28;;;;;;;0.40;0.40;;;;;;;;;;1737779;28;20214;-60
2023/03/16 03:28:21;;;;;;;0.20;0.20;;;;;;;;;;1738482;28;20624;-61
2023/03/16 03:29:13;;;;;;;0.28;0.28;;;;;;;;;;1737950;28;20222;-60
2023/03/16 03:30:05;;;;;;;0.40;0.40;;;;;;;;;;1737996;28;20493;-60
2023/03/16 03:30:57;;;;;;;0.17;0.17;;;;;;;;;;1736247;28;20238;-61
2023/03/16 03:31:48;;;;;;;0.10;0.10;;;;;;;;;;1738336;28;20908;-61
2023/03/16 03:32:42;;;;;;;0.10;0.10;;;;;;;;;;1738426;28;20665;-60
2023/03/16 03:33:33;;;;;;;0.20;0.20;;;;;;;;;;1737562;28;20349;-60
2023/03/16 03:34:25;;;;;;;0.20;0.20;;;;;;;;;;1737990;28;20210;-61
2023/03/16 03:35:16;;;;;;;0.10;0.10;;;;;;;;;;1738469;28;20271;-58
2023/03/16 03:36:08;;;;;;;0.20;0.20;;;;;;;;;;1737582;28;20613;-60
2023/03/16 03:37:00;;;;;;;0.10;0.10;;;;;;;;;;1738445;28;20617;-60
2023/03/16 03:37:52;;;;;;;0.10;0.10;;;;;;;;;;1737513;28;20324;-61
2023/03/16 03:38:43;;;;;;;0.10;0.10;;;;;;;;;;1738489;28;20263;-60
2023/03/16 03:39:35;;;;;;;0.20;0.20;;;;;;;;;;1738283;28;20210;-60
2023/03/16 03:40:26;;;;;;;0.30;0.30;;;;;;;;;;1738441;28;20750;-60
2023/03/16 03:41:18;;;;;;;0.20;0.20;;;;;;;;;;1738028;28;20608;-60
2023/03/16 03:42:09;;;;;;;0.10;0.10;;;;;;;;;;1738777;28;20265;-61
2023/03/16 03:43:01;;;;;;;0.17;0.17;;;;;;;;;;1739294;28;20203;-60
2023/03/16 03:43:52;;;;;;;0.10;0.10;;;;;;;;;;1739836;28;20311;-60
2023/03/16 03:44:44;;;;;;;0.20;0.20;;;;;;;;;;1739432;28;20192;-57
2023/03/16 03:45:35;;;;;;;0.10;0.10;;;;;;;;;;1739791;28;20206;-58
2023/03/16 03:46:27;;;;;;;0.28;0.28;;;;;;;;;;1739425;28;20684;-60
2023/03/16 03:47:19;;;;;;;0.20;0.20;;;;;;;;;;1739324;28;20271;-60
2023/03/16 03:48:12;;;;;;;0.00;0.00;;;;;;;;;;1739306;28;20204;-60
2023/03/16 03:49:04;;;;;;;0.08;0.08;;;;;;;;;;1739368;28;20217;-59
2023/03/16 03:49:56;;;;;;;0.20;0.20;;;;;;;;;;1735535;28;20244;-60
2023/03/16 03:50:47;;;;;;;0.15;0.15;;;;;;;;;;1738862;28;20281;-58
2023/03/16 03:51:39;;;;;;;0.22;0.22;;;;;;;;;;1739905;28;20202;-60
2023/03/16 03:52:30;;;;;;;0.15;0.15;;;;;;;;;;1738877;28;20277;-61
2023/03/16 03:53:22;;;;;;;0.10;0.10;;;;;;;;;;1739564;28;20214;-60
2023/03/16 03:54:13;;;;;;;0.17;0.17;;;;;;;;;;1739256;28;20219;-59
2023/03/16 03:55:06;;;;;;;0.00;0.00;;;;;;;;;;1738807;28;20253;-59
2023/03/16 03:55:57;;;;;;;0.08;0.08;;;;;;;;;;1739164;28;20269;-60
2023/03/16 03:56:49;;;;;;;0.08;0.08;;;;;;;;;;1739436;28;20514;-60
2023/03/16 03:57:40;;;;;;;0.00;0.00;;;;;;;;;;1739360;28;20208;-59
2023/03/16 03:58:32;;;;;;;0.10;0.10;;;;;;;;;;1739471;28;20624;-60
2023/03/16 03:59:23;;;;;;;0.00;0.00;;;;;;;;;;1738989;28;20264;-61
2023/03/16 04:00:19;;;;;;;0.15;0.15;;;;;;;;;;1739637;28;20273;-58
2023/03/16 04:01:10;;;;;;;0.10;0.10;;;;;;;;;;1739162;28;20237;-60
2023/03/16 04:02:02;;;;;;;0.30;0.30;;;;;;;;;;1739574;28;20297;-60
2023/03/16 04:02:53;;;;;;;0.10;0.10;;;;;;;;;;1738805;28;20269;-60
2023/03/16 04:03:46;;;;;;;0.10;0.10;;;;;;;;;;1739703;28;20206;-58
2023/03/16 04:04:37;;;;;;;0.10;0.10;;;;;;;;;;1739464;28;20205;-59
2023/03/16 04:05:29;;;;;;;0.40;0.40;;;;;;;;;;1739375;28;20670;-60
2023/03/16 04:06:20;;;;;;;0.00;0.00;;;;;;;;;;1738993;28;20296;-60
2023/03/16 04:07:13;;;;;;;0.40;0.40;;;;;;;;;;1739493;28;20210;-59
2023/03/16 04:08:04;;;;;;;0.28;0.28;;;;;;;;;;1739246;28;20210;-60
2023/03/16 04:08:56;;;;;;;0.00;0.00;;;;;;;;;;1739212;28;20281;-59
2023/03/16 04:09:47;;;;;;;0.20;0.20;;;;;;;;;;1738624;28;20717;-60
2023/03/16 04:10:40;;;;;;;0.10;0.10;;;;;;;;;;1739704;28;20608;-60
2023/03/16 04:11:31;;;;;;;0.00;0.00;;;;;;;;;;1739220;28;20602;-60
2023/03/16 04:12:23;;;;;;;0.00;0.00;;;;;;;;;;1739188;28;20213;-60
2023/03/16 04:13:14;;;;;;;0.00;0.00;;;;;;;;;;1739341;28;20730;-60
2023/03/16 04:14:06;;;;;;;0.00;0.00;;;;;;;;;;1739139;28;20212;-58
2023/03/16 04:14:57;;;;;;;0.00;0.00;;;;;;;;;;1739556;28;20737;-59
2023/03/16 04:15:49;;;;;;;0.30;0.30;;;;;;;;;;1738795;28;20198;-59
2023/03/16 04:16:42;;;;;;;0.10;0.10;;;;;;;;;;1739918;28;20802;-60
2023/03/16 04:17:34;;;;;;;0.00;0.00;;;;;;;;;;1735239;28;20271;-60
2023/03/16 04:18:25;;;;;;;0.10;0.10;;;;;;;;;;1739481;28;20260;-61
2023/03/16 04:19:19;;;;;;;0.35;0.35;;;;;;;;;;1738885;28;20241;-58
2023/03/16 04:20:14;;;;;;;0.10;0.10;;;;;;;;;;1739228;28;20254;-58
2023/03/16 04:21:06;;;;;;;0.10;0.10;;;;;;;;;;1736276;28;20702;-59
2023/03/16 04:21:57;;;;;;;0.20;0.20;;;;;;;;;;1734309;28;20210;-59
2023/03/16 04:22:57;;;;;;;0.00;0.00;;;;;;;;;;1738749;28;20200;-60
2023/03/16 04:23:48;;;;;;;0.10;0.10;;;;;;;;;;1739475;28;20187;-60
2023/03/16 04:24:42;;;;;;;0.03;0.03;;;;;;;;;;1739389;28;20199;-60
2023/03/16 04:25:33;;;;;;;0.00;0.00;;;;;;;;;;1739357;28;20223;-58
2023/03/16 04:26:25;;;;;;;0.10;0.10;;;;;;;;;;1739044;28;20269;-60
2023/03/16 04:27:17;;;;;;;0.10;0.10;;;;;;;;;;1739276;28;20606;-60
2023/03/16 04:28:09;;;;;;;0.15;0.15;;;;;;;;;;1738306;28;20294;-61
2023/03/16 04:29:02;;;;;;;0.08;0.08;;;;;;;;;;1739147;28;20210;-60
2023/03/16 04:29:57;;;;;;;0.50;0.50;;;;;;;;;;1739010;28;20261;-60
2023/03/16 04:30:48;;;;;;;0.10;0.10;;;;;;;;;;1738831;28;20210;-60
2023/03/16 04:31:41;;;;;;;0.05;0.05;;;;;;;;;;1739884;28;20210;-60
2023/03/16 04:32:32;;;;;;;0.20;0.20;;;;;;;;;;1738863;28;20219;-61
2023/03/16 04:33:24;;;;;;;0.03;0.03;;;;;;;;;;1739477;28;20244;-59
2023/03/16 04:34:16;;;;;;;0.10;0.10;;;;;;;;;;1738854;28;20234;-60
2023/03/16 04:35:10;;;;;;;0.30;0.30;;;;;;;;;;1739415;28;20630;-59
2023/03/16 04:36:01;;;;;;;0.03;0.03;;;;;;;;;;1738620;28;20294;-60
2023/03/16 04:36:53;;;;;;;0.10;0.10;;;;;;;;;;1739327;28;20200;-59
2023/03/16 04:37:44;;;;;;;0.10;0.10;;;;;;;;;;1738845;28;20481;-57
2023/03/16 04:38:36;;;;;;;0.10;0.10;;;;;;;;;;1739467;28;20611;-60
2023/03/16 04:39:27;;;;;;;0.00;0.00;;;;;;;;;;1738979;28;20211;-59
2023/03/16 04:40:20;;;;;;;0.00;0.00;;;;;;;;;;1739233;28;20265;-60
2023/03/16 04:41:11;;;;;;;0.00;0.00;;;;;;;;;;1739080;28;20210;-60
2023/03/16 04:42:02;;;;;;;0.08;0.08;;;;;;;;;;1739354;28;20288;-60
2023/03/16 04:42:53;;;;;;;0.20;0.20;;;;;;;;;;1738505;28;20627;-61
2023/03/16 04:43:46;;;;;;;0.10;0.10;;;;;;;;;;1739428;28;20197;-60
2023/03/16 04:44:43;;;;;;;0.00;0.00;;;;;;;;;;1736251;28;20258;-60
2023/03/16 04:45:35;;;;;;;0.05;0.05;;;;;;;;;;1738035;28;20202;-59
2023/03/16 04:46:26;;;;;;;0.10;0.10;;;;;;;;;;1738625;28;20221;-60
2023/03/16 04:47:18;;;;;;;0.17;0.17;;;;;;;;;;1739037;28;20225;-58
2023/03/16 04:48:09;;;;;;;0.10;0.10;;;;;;;;;;1738321;28;20210;-61
2023/03/16 04:49:01;;;;;;;0.00;0.00;;;;;;;;;;1738943;28;20221;-58
2023/03/16 04:49:52;;;;;;;0.10;0.10;;;;;;;;;;1738907;28;20242;-60
2023/03/16 04:50:46;;;;;;;0.13;0.13;;;;;;;;;;1739124;28;20665;-59
2023/03/16 04:51:39;;;;;;;0.10;0.10;;;;;;;;;;1736472;28;20827;-59
2023/03/16 04:52:31;;;;;;;0.20;0.20;;;;;;;;;;1738526;28;20209;-60
2023/03/16 04:53:22;;;;;;;0.20;0.20;;;;;;;;;;1739080;28;20645;-59
2023/03/16 04:54:14;;;;;;;0.20;0.20;;;;;;;;;;1739007;28;20237;-60
2023/03/16 04:55:05;;;;;;;0.20;0.20;;;;;;;;;;1739253;28;20207;-59
2023/03/16 04:55:57;;;;;;;0.10;0.10;;;;;;;;;;1738963;28;20245;-59
2023/03/16 04:56:48;;;;;;;0.10;0.10;;;;;;;;;;1739123;28;20200;-60
2023/03/16 04:57:40;;;;;;;0.00;0.00;;;;;;;;;;1739031;28;20224;-59
2023/03/16 04:58:31;;;;;;;0.10;0.10;;;;;;;;;;1739130;28;20222;-60
2023/03/16 04:59:23;;;;;;;0.13;0.13;;;;;;;;;;1738708;28;20267;-59
2023/03/16 05:00:18;;;;;;;0.10;0.10;;;;;;;;;;1739321;28;20676;-57
2023/03/16 05:01:09;;;;;;;0.10;0.10;;;;;;;;;;1738689;28;20307;-60
2023/03/16 05:02:00;;;;;;;0.20;0.20;;;;;;;;;;1739265;28;20238;-60
2023/03/16 05:02:52;;;;;;;0.30;0.30;;;;;;;;;;1738492;28;20215;-60
2023/03/16 05:03:43;;;;;;;0.00;0.00;;;;;;;;;;1739463;28;20267;-60
2023/03/16 05:04:35;;;;;;;0.20;0.20;;;;;;;;;;1738159;28;20671;-59
2023/03/16 05:05:26;;;;;;;0.00;0.00;;;;;;;;;;1739113;28;20208;-59
2023/03/16 05:06:20;;;;;;;0.10;0.10;;;;;;;;;;1738439;28;20202;-60
2023/03/16 05:07:11;;;;;;;0.00;0.00;;;;;;;;;;1739139;28;20269;-59
2023/03/16 05:08:04;;;;;;;0.08;0.08;;;;;;;;;;1738694;28;20204;-59
2023/03/16 05:08:55;;;;;;;0.00;0.00;;;;;;;;;;1738965;28;20789;-58
2023/03/16 05:09:47;;;;;;;0.38;0.38;;;;;;;;;;1738876;28;20284;-60
2023/03/16 05:10:38;;;;;;;0.10;0.10;;;;;;;;;;1739092;28;20209;-59
2023/03/16 05:11:30;;;;;;;0.10;0.10;;;;;;;;;;1738890;28;20291;-60
2023/03/16 05:12:22;;;;;;;0.10;0.10;;;;;;;;;;1738821;28;20223;-60
2023/03/16 05:13:14;;;;;;;0.00;0.00;;;;;;;;;;1738864;28;20247;-60
2023/03/16 05:14:05;;;;;;;0.20;0.20;;;;;;;;;;1738823;28;20214;-60